Time;durP1;ratioP1;P1;durP2;ratioP2;P2;SDS_P1;SDS_P2;PMS_P1;PMS_P2;Temp;Humidity;BMP_temperature;BMP_pressure;BME280_temperature;BME280_humidity;BME280_pressure;Samples;Min_cycle;Max_cycle;Signal;HPM_P1;HPM_P2
2022/01/27 00:00:43;;;;;;;30.10;15.33;;;;;;;;;;5049060;28;20420;-77
2022/01/27 00:03:19;;;;;;;44.40;15.87;;;;;;;;;;5050874;28;20464;-77
2022/01/27 00:05:59;;;;;;;36.37;14.20;;;;;;;;;;5025854;28;20481;-78
2022/01/27 00:08:32;;;;;;;28.03;14.00;;;;;;;;;;5052328;28;20490;-78
2022/01/27 00:13:29;;;;;;;33.07;13.80;;;;;;;;;;5032797;28;20453;-76
2022/01/27 00:16:13;;;;;;;38.83;15.50;;;;;;;;;;5052856;28;20430;-77
2022/01/27 00:18:39;;;;;;;30.83;15.40;;;;;;;;;;5036117;28;20433;-77
2022/01/27 00:21:05;;;;;;;31.50;13.50;;;;;;;;;;5040597;28;20442;-78
2022/01/27 00:23:31;;;;;;;28.50;12.17;;;;;;;;;;5033832;28;20464;-77
2022/01/27 00:26:01;;;;;;;42.90;15.67;;;;;;;;;;5056313;28;20454;-77
2022/01/27 00:28:27;;;;;;;37.93;15.17;;;;;;;;;;5025274;28;20483;-77
2022/01/27 00:30:53;;;;;;;30.13;14.67;;;;;;;;;;5036398;28;20434;-77
2022/01/27 00:33:19;;;;;;;33.93;14.33;;;;;;;;;;5035426;28;20456;-77
2022/01/27 00:35:45;;;;;;;39.63;14.60;;;;;;;;;;5057610;28;20442;-77
2022/01/27 00:38:11;;;;;;;40.20;15.50;;;;;;;;;;5031444;28;20435;-76
2022/01/27 00:40:37;;;;;;;34.00;13.33;;;;;;;;;;5054128;28;21146;-78
2022/01/27 00:43:03;;;;;;;42.10;14.47;;;;;;;;;;5040291;28;20441;-77
2022/01/27 00:45:31;;;;;;;42.53;16.90;;;;;;;;;;5054959;28;20440;-77
2022/01/27 00:48:01;;;;;;;30.70;14.67;;;;;;;;;;5037294;28;20465;-78
2022/01/27 00:50:27;;;;;;;30.20;12.80;;;;;;;;;;5053841;28;20449;-76
2022/01/27 00:52:56;;;;;;;37.73;14.80;;;;;;;;;;5038978;28;20444;-76
2022/01/27 00:55:24;;;;;;;30.20;16.10;;;;;;;;;;5058831;28;20425;-77
2022/01/27 01:00:40;;;;;;;29.07;11.70;;;;;;;;;;5056328;28;20499;-75
2022/01/27 01:03:21;;;;;;;28.50;13.83;;;;;;;;;;5055053;28;20565;-76
2022/01/27 01:06:18;;;;;;;29.23;14.63;;;;;;;;;;5059779;28;20440;-76
2022/01/27 01:17:04;;;;;;;30.40;13.10;;;;;;;;;;5056262;28;20446;-76
2022/01/27 01:19:33;;;;;;;40.70;16.40;;;;;;;;;;5038209;28;20449;-77
2022/01/27 01:34:59;;;;;;;34.67;16.83;;;;;;;;;;5063285;28;20506;-77
2022/01/27 01:37:25;;;;;;;29.10;13.23;;;;;;;;;;5064495;28;20434;-76
2022/01/27 01:39:51;;;;;;;29.13;14.17;;;;;;;;;;5042262;28;20496;-76
2022/01/27 01:42:17;;;;;;;34.07;15.03;;;;;;;;;;5058181;28;20433;-76
2022/01/27 01:44:45;;;;;;;33.40;14.00;;;;;;;;;;5038104;28;20585;-77
2022/01/27 01:47:11;;;;;;;33.03;13.80;;;;;;;;;;5060403;28;20434;-77
2022/01/27 01:49:37;;;;;;;22.40;11.50;;;;;;;;;;5065087;28;20440;-78
2022/01/27 01:52:04;;;;;;;24.37;13.23;;;;;;;;;;5061296;28;20429;-76
2022/01/27 01:54:30;;;;;;;23.87;11.70;;;;;;;;;;5036343;28;20445;-76
2022/01/27 01:56:56;;;;;;;22.40;10.40;;;;;;;;;;5062587;28;20812;-76
2022/01/27 01:59:22;;;;;;;23.60;11.80;;;;;;;;;;5032739;28;20466;-76
2022/01/27 02:01:48;;;;;;;25.00;12.73;;;;;;;;;;5054874;28;20434;-76
2022/01/27 02:04:14;;;;;;;23.87;11.90;;;;;;;;;;5014549;28;22118;-76
2022/01/27 02:20:09;;;;;;;20.87;11.37;;;;;;;;;;5051264;28;21024;-76
2022/01/27 02:22:35;;;;;;;19.30;10.40;;;;;;;;;;5028805;28;20442;-76
2022/01/27 02:25:00;;;;;;;23.67;12.73;;;;;;;;;;5055859;28;20484;-76
2022/01/27 02:27:26;;;;;;;20.13;10.33;;;;;;;;;;5028792;28;20545;-77
2022/01/27 02:29:53;;;;;;;28.17;12.60;;;;;;;;;;5047023;28;20438;-76
2022/01/27 02:32:19;;;;;;;22.90;14.00;;;;;;;;;;5029000;28;20438;-76
2022/01/27 02:34:45;;;;;;;29.93;11.60;;;;;;;;;;5058178;28;20444;-76
2022/01/27 02:37:11;;;;;;;26.77;11.33;;;;;;;;;;5010659;28;20447;-77
2022/01/27 02:39:37;;;;;;;25.50;11.07;;;;;;;;;;5057504;28;20440;-77
2022/01/27 02:42:22;;;;;;;23.53;12.17;;;;;;;;;;5017057;28;23163;-77
2022/01/27 02:44:48;;;;;;;18.63;10.63;;;;;;;;;;5052515;28;20485;-78
2022/01/27 02:47:15;;;;;;;23.87;11.30;;;;;;;;;;5048536;28;20478;-77
2022/01/27 02:49:40;;;;;;;23.20;11.30;;;;;;;;;;5055385;28;20438;-77
2022/01/27 02:52:07;;;;;;;20.40;11.87;;;;;;;;;;5052908;28;20426;-76
2022/01/27 02:54:33;;;;;;;18.30;11.13;;;;;;;;;;5049265;28;20445;-76
2022/01/27 02:56:59;;;;;;;18.73;11.07;;;;;;;;;;5051482;28;20974;-76
2022/01/27 02:59:25;;;;;;;29.40;14.07;;;;;;;;;;5048965;28;20445;-77
2022/01/27 03:01:51;;;;;;;31.00;13.03;;;;;;;;;;5026165;28;20580;-76
2022/01/27 03:04:18;;;;;;;27.57;11.83;;;;;;;;;;5042586;28;20558;-77
2022/01/27 03:06:44;;;;;;;20.87;10.43;;;;;;;;;;5051059;28;20775;-76
2022/01/27 03:09:10;;;;;;;18.50;9.57;;;;;;;;;;5046249;28;20427;-76
2022/01/27 03:11:59;;;;;;;23.50;12.10;;;;;;;;;;5026712;28;20457;-77
2022/01/27 03:14:26;;;;;;;17.87;10.40;;;;;;;;;;5050857;28;20521;-75
2022/01/27 03:16:54;;;;;;;24.30;11.20;;;;;;;;;;5036805;28;20532;-76
2022/01/27 03:19:20;;;;;;;23.10;12.90;;;;;;;;;;5046447;28;20440;-77
2022/01/27 03:21:46;;;;;;;32.30;13.27;;;;;;;;;;5031799;28;20452;-76
2022/01/27 03:24:12;;;;;;;22.80;12.50;;;;;;;;;;5048432;28;20541;-76
2022/01/27 03:26:38;;;;;;;26.40;12.27;;;;;;;;;;5048427;28;20565;-77
2022/01/27 03:29:04;;;;;;;23.67;10.90;;;;;;;;;;5052331;28;20534;-76
2022/01/27 03:31:33;;;;;;;21.03;10.67;;;;;;;;;;5040926;28;20474;-75
2022/01/27 03:33:59;;;;;;;20.30;11.90;;;;;;;;;;5032847;28;20519;-77
2022/01/27 03:36:25;;;;;;;17.57;9.73;;;;;;;;;;5048386;28;20474;-77
2022/01/27 03:38:51;;;;;;;24.93;11.37;;;;;;;;;;5047665;28;20848;-77
2022/01/27 03:41:36;;;;;;;24.77;10.83;;;;;;;;;;5048520;28;20418;-77
2022/01/27 03:44:07;;;;;;;17.50;9.53;;;;;;;;;;5030584;28;20477;-77
2022/01/27 03:46:33;;;;;;;21.00;11.50;;;;;;;;;;5050303;28;20847;-77
2022/01/27 03:48:59;;;;;;;21.00;11.30;;;;;;;;;;5054983;28;20423;-77
2022/01/27 03:51:25;;;;;;;21.53;10.40;;;;;;;;;;5049073;28;20445;-77
2022/01/27 03:53:51;;;;;;;18.13;9.97;;;;;;;;;;5031905;28;20975;-77
2022/01/27 03:56:17;;;;;;;25.43;10.50;;;;;;;;;;5051301;28;20436;-77
2022/01/27 03:58:43;;;;;;;20.20;11.47;;;;;;;;;;5053099;28;20437;-77
2022/01/27 04:01:09;;;;;;;22.70;10.60;;;;;;;;;;5049338;28;20557;-77
2022/01/27 04:03:37;;;;;;;17.33;12.10;;;;;;;;;;5047198;28;20623;-75
2022/01/27 04:06:08;;;;;;;23.03;12.70;;;;;;;;;;5042721;28;20468;-77
2022/01/27 04:08:36;;;;;;;25.20;11.20;;;;;;;;;;5032723;28;20801;-77
2022/01/27 04:11:03;;;;;;;24.30;12.13;;;;;;;;;;5058492;28;20482;-77
2022/01/27 04:13:29;;;;;;;28.83;12.33;;;;;;;;;;5047722;28;20501;-76
2022/01/27 04:15:55;;;;;;;22.67;10.80;;;;;;;;;;5087526;28;20528;-76
2022/01/27 04:18:21;;;;;;;21.70;11.60;;;;;;;;;;5014391;28;20526;-76
2022/01/27 04:20:47;;;;;;;22.27;9.63;;;;;;;;;;5059861;28;20569;-76
2022/01/27 04:23:13;;;;;;;29.60;13.43;;;;;;;;;;5034691;28;20438;-77
2022/01/27 04:25:39;;;;;;;17.63;12.13;;;;;;;;;;5060793;28;20441;-76
2022/01/27 04:28:09;;;;;;;24.00;10.03;;;;;;;;;;5053614;28;20507;-77
2022/01/27 04:30:35;;;;;;;20.80;12.87;;;;;;;;;;5067358;28;20818;-77
2022/01/27 04:33:03;;;;;;;22.83;12.23;;;;;;;;;;5032482;28;20532;-76
2022/01/27 04:35:33;;;;;;;22.33;11.27;;;;;;;;;;5064349;28;20457;-76
2022/01/27 04:38:13;;;;;;;23.17;11.90;;;;;;;;;;5057399;28;20438;-76
2022/01/27 04:46:09;;;;;;;22.47;11.77;;;;;;;;;;5051772;28;20484;-76
2022/01/27 04:48:40;;;;;;;17.77;10.90;;;;;;;;;;5035720;28;20445;-76
2022/01/27 04:51:08;;;;;;;24.63;13.47;;;;;;;;;;5054682;28;21073;-76
2022/01/27 04:53:40;;;;;;;23.50;13.63;;;;;;;;;;4995825;28;20450;-76
2022/01/27 04:56:10;;;;;;;24.17;12.43;;;;;;;;;;5055134;28;20437;-76
2022/01/27 04:58:36;;;;;;;18.90;11.10;;;;;;;;;;5048260;28;20583;-76
2022/01/27 05:01:04;;;;;;;18.60;11.80;;;;;;;;;;5049694;28;20564;-77
2022/01/27 05:03:37;;;;;;;19.60;11.37;;;;;;;;;;5053537;28;20461;-77
2022/01/27 05:06:03;;;;;;;32.20;14.27;;;;;;;;;;5059030;28;20445;-77
2022/01/27 05:08:29;;;;;;;31.20;15.43;;;;;;;;;;5049503;28;20568;-77
2022/01/27 05:11:03;;;;;;;21.37;11.93;;;;;;;;;;5060718;28;20512;-77
2022/01/27 05:13:36;;;;;;;26.90;13.40;;;;;;;;;;5034483;28;20453;-77
2022/01/27 05:16:03;;;;;;;32.13;13.97;;;;;;;;;;5031450;28;20434;-76
2022/01/27 05:18:29;;;;;;;25.60;13.67;;;;;;;;;;5057123;28;20438;-76
2022/01/27 05:20:55;;;;;;;26.43;12.03;;;;;;;;;;5037345;28;21039;-76
2022/01/27 05:23:21;;;;;;;20.57;10.77;;;;;;;;;;5052684;28;20561;-76
2022/01/27 05:25:47;;;;;;;18.40;10.50;;;;;;;;;;5018636;28;21011;-77
2022/01/27 05:28:13;;;;;;;25.33;14.73;;;;;;;;;;5054019;28;20503;-77
2022/01/27 05:30:39;;;;;;;21.20;12.97;;;;;;;;;;5036083;28;20966;-77
2022/01/27 05:33:05;;;;;;;28.67;13.97;;;;;;;;;;5046754;28;20454;-77
2022/01/27 05:35:31;;;;;;;20.10;12.00;;;;;;;;;;5032681;28;20515;-77
2022/01/27 05:37:57;;;;;;;28.83;15.13;;;;;;;;;;5044313;28;20431;-77
2022/01/27 05:40:23;;;;;;;27.10;15.30;;;;;;;;;;5016019;28;20523;-76
2022/01/27 05:42:49;;;;;;;20.93;13.70;;;;;;;;;;5044480;28;20533;-77
2022/01/27 05:45:15;;;;;;;31.97;14.13;;;;;;;;;;5029995;28;20474;-77
2022/01/27 05:47:41;;;;;;;21.73;13.97;;;;;;;;;;5018794;28;20470;-76
2022/01/27 05:50:07;;;;;;;28.47;16.03;;;;;;;;;;5051349;28;20460;-76
2022/01/27 05:52:33;;;;;;;25.67;14.63;;;;;;;;;;5048231;28;20441;-77
2022/01/27 05:54:59;;;;;;;28.00;14.37;;;;;;;;;;5051353;28;20520;-76
2022/01/27 05:57:25;;;;;;;26.77;13.37;;;;;;;;;;5011788;28;20937;-77
2022/01/27 05:59:51;;;;;;;25.20;13.27;;;;;;;;;;5047052;28;21003;-78
2022/01/27 06:02:17;;;;;;;28.80;15.23;;;;;;;;;;5018359;28;20437;-77
2022/01/27 06:04:44;;;;;;;34.87;14.47;;;;;;;;;;5046567;28;20538;-77
2022/01/27 06:07:11;;;;;;;22.53;12.63;;;;;;;;;;5040399;28;20438;-77
2022/01/27 06:09:36;;;;;;;24.03;13.70;;;;;;;;;;5056588;28;20466;-76
2022/01/27 06:12:03;;;;;;;21.30;12.33;;;;;;;;;;5024388;28;20448;-77
2022/01/27 06:14:29;;;;;;;21.53;12.60;;;;;;;;;;5042627;28;20441;-76
2022/01/27 06:16:55;;;;;;;22.37;13.90;;;;;;;;;;5020158;28;20443;-77
2022/01/27 06:19:26;;;;;;;22.87;12.10;;;;;;;;;;5042070;28;20446;-76
2022/01/27 06:21:52;;;;;;;27.93;13.70;;;;;;;;;;5039866;28;21032;-77
2022/01/27 06:24:18;;;;;;;25.50;15.50;;;;;;;;;;5041640;28;20473;-77
2022/01/27 06:26:44;;;;;;;21.17;13.00;;;;;;;;;;5006203;28;20445;-77
2022/01/27 06:29:10;;;;;;;24.13;14.97;;;;;;;;;;5047694;28;20427;-76
2022/01/27 06:31:36;;;;;;;30.03;14.63;;;;;;;;;;5029726;28;21074;-76
2022/01/27 06:34:02;;;;;;;27.00;12.20;;;;;;;;;;5062167;28;20453;-77
2022/01/27 06:36:28;;;;;;;35.20;14.53;;;;;;;;;;5056709;28;20444;-77
2022/01/27 06:38:54;;;;;;;22.63;14.63;;;;;;;;;;5043771;28;20520;-77
2022/01/27 06:41:20;;;;;;;22.27;13.47;;;;;;;;;;5046177;28;20437;-77
2022/01/27 06:43:47;;;;;;;23.57;13.27;;;;;;;;;;5032595;28;21028;-76
2022/01/27 06:46:12;;;;;;;26.63;14.90;;;;;;;;;;5038218;28;20516;-75
2022/01/27 06:48:38;;;;;;;23.30;11.87;;;;;;;;;;5054921;28;20742;-74
2022/01/27 06:51:05;;;;;;;26.77;13.00;;;;;;;;;;5026841;28;21027;-74
2022/01/27 06:53:31;;;;;;;23.97;13.70;;;;;;;;;;5051251;28;20531;-74
2022/01/27 06:55:58;;;;;;;21.70;11.87;;;;;;;;;;5038407;28;20498;-75
2022/01/27 06:58:24;;;;;;;25.83;13.60;;;;;;;;;;5048797;28;20711;-75
2022/01/27 07:00:49;;;;;;;29.30;13.67;;;;;;;;;;5011999;28;20442;-76
2022/01/27 07:03:15;;;;;;;23.47;12.37;;;;;;;;;;5051010;28;20649;-76
2022/01/27 07:05:42;;;;;;;21.70;11.70;;;;;;;;;;5028370;28;20809;-77
2022/01/27 07:08:08;;;;;;;24.10;11.77;;;;;;;;;;5054042;28;20476;-75
2022/01/27 07:10:34;;;;;;;28.37;14.40;;;;;;;;;;5036668;28;20537;-74
2022/01/27 07:13:00;;;;;;;25.73;11.20;;;;;;;;;;5028798;28;20430;-75
2022/01/27 07:15:28;;;;;;;18.67;10.27;;;;;;;;;;5046492;28;20439;-73
2022/01/27 07:17:54;;;;;;;21.13;11.70;;;;;;;;;;5047702;28;20430;-74
2022/01/27 07:20:21;;;;;;;25.00;11.23;;;;;;;;;;5050801;28;20458;-75
2022/01/27 07:22:47;;;;;;;23.27;11.57;;;;;;;;;;5033514;28;20457;-74
2022/01/27 07:25:13;;;;;;;21.13;13.80;;;;;;;;;;5055304;28;20483;-74
2022/01/27 07:27:39;;;;;;;25.93;11.90;;;;;;;;;;5049534;28;20424;-74
2022/01/27 07:30:06;;;;;;;23.07;11.90;;;;;;;;;;5058862;28;20805;-75
2022/01/27 07:32:31;;;;;;;23.03;11.10;;;;;;;;;;5007151;28;20535;-75
2022/01/27 07:34:57;;;;;;;24.47;11.77;;;;;;;;;;5026917;28;20444;-75
2022/01/27 07:37:23;;;;;;;22.60;9.77;;;;;;;;;;5033597;28;21232;-75
2022/01/27 07:39:49;;;;;;;18.90;11.30;;;;;;;;;;5063352;28;20441;-75
2022/01/27 07:42:15;;;;;;;35.80;11.40;;;;;;;;;;5045498;28;20747;-74
2022/01/27 07:44:41;;;;;;;20.80;10.30;;;;;;;;;;5037687;28;20989;-73
2022/01/27 07:47:07;;;;;;;21.40;10.63;;;;;;;;;;5052624;28;20450;-75
2022/01/27 07:49:33;;;;;;;24.93;14.97;;;;;;;;;;5011984;28;20494;-73
2022/01/27 07:51:59;;;;;;;19.10;11.37;;;;;;;;;;5057311;28;20470;-73
2022/01/27 07:54:25;;;;;;;28.80;13.43;;;;;;;;;;5039555;28;20979;-73
2022/01/27 07:56:51;;;;;;;25.90;12.67;;;;;;;;;;5054368;28;20871;-76
2022/01/27 07:59:17;;;;;;;24.70;12.80;;;;;;;;;;5029637;28;20449;-74
2022/01/27 08:01:43;;;;;;;22.93;12.40;;;;;;;;;;5047948;28;20438;-74
2022/01/27 08:04:26;;;;;;;23.53;12.27;;;;;;;;;;5030265;28;21026;-76
2022/01/27 08:06:53;;;;;;;19.50;10.60;;;;;;;;;;5055362;28;20831;-74
2022/01/27 08:09:19;;;;;;;24.80;12.93;;;;;;;;;;5032407;28;20434;-76
2022/01/27 08:11:45;;;;;;;24.30;13.37;;;;;;;;;;5019451;28;20884;-75
2022/01/27 08:14:12;;;;;;;26.20;12.33;;;;;;;;;;5061964;28;20792;-75
2022/01/27 08:16:38;;;;;;;28.67;12.23;;;;;;;;;;5040175;28;20448;-75
2022/01/27 08:19:04;;;;;;;24.33;12.17;;;;;;;;;;5061213;28;20953;-75
2022/01/27 08:21:31;;;;;;;31.73;15.27;;;;;;;;;;5036093;28;20484;-75
2022/01/27 08:23:59;;;;;;;33.87;16.33;;;;;;;;;;5061486;28;20905;-76
2022/01/27 08:26:32;;;;;;;24.07;12.67;;;;;;;;;;5031981;28;20449;-75
2022/01/27 08:29:10;;;;;;;34.33;13.70;;;;;;;;;;5064435;28;20958;-72
2022/01/27 08:31:55;;;;;;;27.77;11.87;;;;;;;;;;5038104;28;20430;-75
2022/01/27 08:34:29;;;;;;;33.80;13.33;;;;;;;;;;5063858;28;20450;-74
2022/01/27 08:36:56;;;;;;;27.00;15.23;;;;;;;;;;5021372;28;20437;-73
2022/01/27 08:39:22;;;;;;;34.57;14.07;;;;;;;;;;5054467;28;20468;-75
2022/01/27 08:41:48;;;;;;;24.10;11.60;;;;;;;;;;5060493;28;20805;-75
2022/01/27 08:44:14;;;;;;;35.97;14.63;;;;;;;;;;5063243;28;20472;-74
2022/01/27 08:46:40;;;;;;;30.77;13.10;;;;;;;;;;5040489;28;20456;-75
2022/01/27 08:49:06;;;;;;;22.87;13.00;;;;;;;;;;5067581;28;20433;-74
2022/01/27 08:51:33;;;;;;;24.37;11.57;;;;;;;;;;5048643;28;20440;-76
2022/01/27 08:53:59;;;;;;;36.67;15.53;;;;;;;;;;5057193;28;20532;-73
2022/01/27 08:56:25;;;;;;;23.90;13.37;;;;;;;;;;5045118;28;20448;-74
2022/01/27 08:58:51;;;;;;;31.40;13.40;;;;;;;;;;5068558;28;20934;-73
2022/01/27 09:01:17;;;;;;;21.63;11.47;;;;;;;;;;5032028;28;20452;-73
2022/01/27 09:03:45;;;;;;;24.47;11.83;;;;;;;;;;5064165;28;20481;-75
2022/01/27 09:06:11;;;;;;;27.90;13.67;;;;;;;;;;5044222;28;20433;-75
2022/01/27 09:08:38;;;;;;;29.97;12.10;;;;;;;;;;5073834;28;20441;-75
2022/01/27 09:11:04;;;;;;;34.67;14.07;;;;;;;;;;5018832;28;20445;-72
2022/01/27 09:13:30;;;;;;;28.40;13.70;;;;;;;;;;5066933;28;20915;-75
2022/01/27 09:15:59;;;;;;;23.43;12.93;;;;;;;;;;5066679;28;20428;-74
2022/01/27 09:18:25;;;;;;;17.00;9.60;;;;;;;;;;5078722;28;20453;-75
2022/01/27 09:20:51;;;;;;;17.53;10.23;;;;;;;;;;5073918;28;20446;-75
2022/01/27 09:23:17;;;;;;;18.67;9.60;;;;;;;;;;5070152;28;20448;-73
2022/01/27 09:25:45;;;;;;;26.93;13.43;;;;;;;;;;5055755;28;22858;-75
2022/01/27 09:28:12;;;;;;;18.60;10.10;;;;;;;;;;5075485;28;20430;-75
2022/01/27 09:30:38;;;;;;;13.83;8.97;;;;;;;;;;5067272;28;20426;-74
2022/01/27 09:33:04;;;;;;;18.80;7.20;;;;;;;;;;5073746;28;21007;-74
2022/01/27 09:35:31;;;;;;;17.17;8.17;;;;;;;;;;5045528;28;20442;-75
2022/01/27 09:37:57;;;;;;;22.23;9.80;;;;;;;;;;5068344;28;20453;-74
2022/01/27 09:40:29;;;;;;;12.17;6.20;;;;;;;;;;5024487;28;20453;-74
2022/01/27 09:42:55;;;;;;;16.77;7.57;;;;;;;;;;5070448;28;20480;-75
2022/01/27 09:45:22;;;;;;;11.87;7.03;;;;;;;;;;5042797;28;20581;-75
2022/01/27 09:47:59;;;;;;;16.60;8.83;;;;;;;;;;5067575;28;20937;-75
2022/01/27 09:53:01;;;;;;;19.47;9.20;;;;;;;;;;5063180;28;20452;-74
2022/01/27 09:55:27;;;;;;;16.80;8.60;;;;;;;;;;5033240;28;23437;-74
2022/01/27 09:57:54;;;;;;;20.27;9.30;;;;;;;;;;5065139;28;20441;-76
2022/01/27 10:00:20;;;;;;;19.10;9.67;;;;;;;;;;5053935;28;20433;-75
2022/01/27 10:03:02;;;;;;;18.30;8.90;;;;;;;;;;5061261;28;20436;-75
2022/01/27 10:05:28;;;;;;;16.43;9.33;;;;;;;;;;5034260;28;21161;-74
2022/01/27 10:08:02;;;;;;;21.47;9.40;;;;;;;;;;5053805;28;20851;-75
2022/01/27 10:10:28;;;;;;;23.00;9.20;;;;;;;;;;5058487;28;20541;-74
2022/01/27 10:12:56;;;;;;;15.10;7.43;;;;;;;;;;5061763;28;20525;-74
2022/01/27 10:15:29;;;;;;;9.80;7.27;;;;;;;;;;5020437;28;21262;-75
2022/01/27 10:18:15;;;;;;;15.03;7.77;;;;;;;;;;5034972;28;20477;-74
2022/01/27 10:21:00;;;;;;;14.57;8.60;;;;;;;;;;5064192;28;20441;-75
2022/01/27 10:23:32;;;;;;;14.80;7.43;;;;;;;;;;5031776;28;20442;-76
2022/01/27 10:26:08;;;;;;;11.87;6.13;;;;;;;;;;5044026;28;20438;-74
2022/01/27 10:31:08;;;;;;;16.47;7.70;;;;;;;;;;5060814;28;20489;-74
2022/01/27 10:33:47;;;;;;;18.20;8.10;;;;;;;;;;5045951;28;20437;-74
2022/01/27 10:36:23;;;;;;;12.17;6.30;;;;;;;;;;5060822;28;20442;-75
2022/01/27 10:38:50;;;;;;;14.60;8.27;;;;;;;;;;5031592;28;20498;-74
2022/01/27 10:41:16;;;;;;;17.10;6.43;;;;;;;;;;5042711;28;20452;-74
2022/01/27 10:43:42;;;;;;;15.93;10.50;;;;;;;;;;5057779;28;20492;-75
2022/01/27 10:46:31;;;;;;;15.33;8.07;;;;;;;;;;5058240;28;20916;-73
2022/01/27 10:49:04;;;;;;;14.53;7.90;;;;;;;;;;5024418;28;20510;-74
2022/01/27 10:51:40;;;;;;;12.10;7.70;;;;;;;;;;5071671;28;20475;-73
2022/01/27 10:54:17;;;;;;;11.73;6.07;;;;;;;;;;5068695;28;20432;-74
2022/01/27 10:56:43;;;;;;;13.50;6.70;;;;;;;;;;5073678;28;20424;-75
2022/01/27 10:59:13;;;;;;;9.50;6.43;;;;;;;;;;5040984;28;20465;-75
2022/01/27 11:01:42;;;;;;;15.80;5.97;;;;;;;;;;5066083;28;20437;-74
2022/01/27 11:04:09;;;;;;;16.87;9.43;;;;;;;;;;5046711;28;20517;-74
2022/01/27 11:06:35;;;;;;;16.37;9.97;;;;;;;;;;5068700;28;20444;-74
2022/01/27 11:09:07;;;;;;;13.67;8.47;;;;;;;;;;5031458;28;20437;-76
2022/01/27 11:11:34;;;;;;;15.47;7.10;;;;;;;;;;5063598;28;20482;-75
2022/01/27 11:14:00;;;;;;;10.67;6.50;;;;;;;;;;5060824;28;20429;-74
2022/01/27 11:16:33;;;;;;;13.33;6.87;;;;;;;;;;5060252;28;20439;-75
2022/01/27 11:19:23;;;;;;;11.33;6.47;;;;;;;;;;5058644;28;21205;-74
2022/01/27 11:21:55;;;;;;;12.23;7.57;;;;;;;;;;5061097;28;20467;-75
2022/01/27 11:24:25;;;;;;;13.70;6.77;;;;;;;;;;5016022;28;20512;-75
2022/01/27 11:26:53;;;;;;;12.60;6.90;;;;;;;;;;5062021;28;20498;-74
2022/01/27 11:29:19;;;;;;;12.40;6.57;;;;;;;;;;5054240;28;20541;-75
2022/01/27 11:31:45;;;;;;;17.20;9.03;;;;;;;;;;5046425;28;20446;-74
2022/01/27 11:34:11;;;;;;;13.47;7.27;;;;;;;;;;5039856;28;20459;-74
2022/01/27 11:36:38;;;;;;;16.37;7.60;;;;;;;;;;5032671;28;20432;-74
2022/01/27 11:39:09;;;;;;;9.67;7.07;;;;;;;;;;5057349;28;20461;-74
2022/01/27 11:41:36;;;;;;;16.07;7.07;;;;;;;;;;5031045;28;21021;-74
2022/01/27 11:44:19;;;;;;;13.10;6.70;;;;;;;;;;5077004;28;20480;-75
2022/01/27 11:47:04;;;;;;;16.60;7.50;;;;;;;;;;5035437;28;20852;-74
2022/01/27 11:49:46;;;;;;;13.73;7.90;;;;;;;;;;5066027;28;20528;-74
2022/01/27 11:52:19;;;;;;;14.50;8.03;;;;;;;;;;5045402;28;20905;-74
2022/01/27 11:54:45;;;;;;;12.07;7.23;;;;;;;;;;5064290;28;20429;-73
2022/01/27 11:57:31;;;;;;;19.93;8.30;;;;;;;;;;5021003;28;20445;-75
2022/01/27 12:00:13;;;;;;;13.60;8.73;;;;;;;;;;5062453;28;20422;-74
2022/01/27 12:02:58;;;;;;;15.67;8.40;;;;;;;;;;5042567;28;20481;-73
2022/01/27 12:05:24;;;;;;;11.77;7.43;;;;;;;;;;5067608;28;20531;-73
2022/01/27 12:08:09;;;;;;;17.33;7.40;;;;;;;;;;5042312;28;20531;-74
2022/01/27 12:10:44;;;;;;;14.90;7.33;;;;;;;;;;5064480;28;20475;-74
2022/01/27 12:18:58;;;;;;;11.83;7.30;;;;;;;;;;5066196;28;20441;-72
2022/01/27 12:21:37;;;;;;;13.57;8.23;;;;;;;;;;5061816;28;20445;-73
2022/01/27 12:26:51;;;;;;;10.97;7.27;;;;;;;;;;5033818;28;20437;-73
2022/01/27 12:29:22;;;;;;;13.57;7.10;;;;;;;;;;5013613;28;20433;-73
2022/01/27 12:31:49;;;;;;;11.80;7.80;;;;;;;;;;5066882;28;20431;-73
2022/01/27 12:34:15;;;;;;;13.43;8.10;;;;;;;;;;5064043;28;20435;-74
2022/01/27 12:36:57;;;;;;;15.40;9.57;;;;;;;;;;5068805;28;20831;-74
2022/01/27 12:39:23;;;;;;;13.70;8.50;;;;;;;;;;5044721;28;20448;-75
2022/01/27 12:41:54;;;;;;;14.73;7.63;;;;;;;;;;5069902;28;21491;-74
2022/01/27 12:44:20;;;;;;;14.93;8.53;;;;;;;;;;5038004;28;20986;-74
2022/01/27 12:47:02;;;;;;;15.30;8.17;;;;;;;;;;5045615;28;21197;-73
2022/01/27 12:49:35;;;;;;;12.43;7.10;;;;;;;;;;5070052;28;20448;-72
2022/01/27 12:52:05;;;;;;;13.90;8.00;;;;;;;;;;5065296;28;20418;-73
2022/01/27 12:54:31;;;;;;;14.53;7.90;;;;;;;;;;5074512;28;20421;-74
2022/01/27 12:56:57;;;;;;;17.30;7.97;;;;;;;;;;5047040;28;23563;-75
2022/01/27 12:59:23;;;;;;;15.97;7.90;;;;;;;;;;5066158;28;20526;-74
2022/01/27 13:02:00;;;;;;;19.93;8.90;;;;;;;;;;5030094;28;21575;-77
2022/01/27 13:04:26;;;;;;;22.63;7.80;;;;;;;;;;5060515;28;20479;-74
2022/01/27 13:06:53;;;;;;;15.00;8.07;;;;;;;;;;5063877;28;21029;-74
2022/01/27 13:09:19;;;;;;;15.13;8.40;;;;;;;;;;5067116;28;20436;-74
2022/01/27 13:11:47;;;;;;;16.93;8.60;;;;;;;;;;5052712;28;21206;-75
2022/01/27 13:14:13;;;;;;;15.23;8.30;;;;;;;;;;5053161;28;21061;-72
2022/01/27 13:16:45;;;;;;;16.87;9.20;;;;;;;;;;5046298;28;21316;-75
2022/01/27 13:19:23;;;;;;;14.80;8.93;;;;;;;;;;5064996;28;20443;-74
2022/01/27 13:22:00;;;;;;;15.73;9.17;;;;;;;;;;5063873;28;20600;-74
2022/01/27 13:24:27;;;;;;;17.63;8.70;;;;;;;;;;5066204;28;20480;-75
2022/01/27 13:27:23;;;;;;;12.50;7.10;;;;;;;;;;5064872;28;20436;-74
2022/01/27 13:29:49;;;;;;;17.63;9.10;;;;;;;;;;5015631;28;20862;-74
2022/01/27 13:32:16;;;;;;;13.17;8.87;;;;;;;;;;5011794;28;21182;-74
2022/01/27 13:34:51;;;;;;;12.77;8.20;;;;;;;;;;5047657;28;20441;-74
2022/01/27 13:37:30;;;;;;;14.90;8.40;;;;;;;;;;5057139;28;20551;-73
2022/01/27 13:42:22;;;;;;;13.50;9.60;;;;;;;;;;5040426;28;20463;-74
2022/01/27 13:44:54;;;;;;;15.30;8.90;;;;;;;;;;5060322;28;20473;-75
2022/01/27 13:47:28;;;;;;;14.20;8.27;;;;;;;;;;5028812;28;20535;-76
2022/01/27 13:49:55;;;;;;;21.30;9.63;;;;;;;;;;5064871;28;20434;-76
2022/01/27 13:52:24;;;;;;;18.50;9.10;;;;;;;;;;5063210;28;20426;-76
2022/01/27 13:54:50;;;;;;;16.60;9.13;;;;;;;;;;5063556;28;20483;-75
2022/01/27 13:57:20;;;;;;;12.27;8.07;;;;;;;;;;5059566;28;21007;-74
2022/01/27 13:59:56;;;;;;;12.27;7.80;;;;;;;;;;5063866;28;20444;-74
2022/01/27 14:02:43;;;;;;;10.67;8.40;;;;;;;;;;5038286;28;20526;-74
2022/01/27 14:05:12;;;;;;;15.73;8.27;;;;;;;;;;5067457;28;20475;-75
2022/01/27 14:07:38;;;;;;;12.50;7.93;;;;;;;;;;5021638;28;20637;-74
2022/01/27 14:10:09;;;;;;;13.80;8.80;;;;;;;;;;5053316;28;20504;-73
2022/01/27 14:12:57;;;;;;;14.20;7.90;;;;;;;;;;5039630;28;20508;-74
2022/01/27 14:15:27;;;;;;;11.57;8.00;;;;;;;;;;5060055;28;20440;-74
2022/01/27 14:18:00;;;;;;;12.20;7.30;;;;;;;;;;5040638;28;20502;-74
2022/01/27 14:20:26;;;;;;;18.00;7.37;;;;;;;;;;5067391;28;20433;-75
2022/01/27 14:23:14;;;;;;;13.70;7.13;;;;;;;;;;5036805;28;20456;-75
2022/01/27 14:25:46;;;;;;;10.60;6.30;;;;;;;;;;5068864;28;20472;-74
2022/01/27 14:28:12;;;;;;;12.73;7.40;;;;;;;;;;5047945;28;20483;-75
2022/01/27 14:30:38;;;;;;;11.13;6.57;;;;;;;;;;5062011;28;20434;-75
2022/01/27 14:33:04;;;;;;;9.90;6.90;;;;;;;;;;5053144;28;20421;-74
2022/01/27 14:35:30;;;;;;;10.60;5.60;;;;;;;;;;5068347;28;20449;-73
2022/01/27 14:37:58;;;;;;;14.60;8.20;;;;;;;;;;5019528;28;20893;-74
2022/01/27 14:40:24;;;;;;;11.23;6.97;;;;;;;;;;5028245;28;20434;-75
2022/01/27 14:42:51;;;;;;;17.07;8.63;;;;;;;;;;5061191;28;20885;-75
2022/01/27 14:45:20;;;;;;;12.10;7.33;;;;;;;;;;5054351;28;20485;-75
2022/01/27 14:47:46;;;;;;;14.97;7.57;;;;;;;;;;5063108;28;20447;-74
2022/01/27 14:50:13;;;;;;;13.10;6.67;;;;;;;;;;5040520;28;20511;-74
2022/01/27 14:52:42;;;;;;;13.40;6.57;;;;;;;;;;5064365;28;21071;-74
2022/01/27 14:55:08;;;;;;;9.33;5.27;;;;;;;;;;5037906;28;20953;-75
2022/01/27 14:57:35;;;;;;;11.20;6.60;;;;;;;;;;5058872;28;20429;-75
2022/01/27 15:00:01;;;;;;;12.90;6.20;;;;;;;;;;5035834;28;20453;-74
2022/01/27 15:02:27;;;;;;;10.50;6.23;;;;;;;;;;5062190;28;20434;-73
2022/01/27 15:04:53;;;;;;;15.60;9.13;;;;;;;;;;5039200;28;21173;-75
2022/01/27 15:07:22;;;;;;;10.83;6.83;;;;;;;;;;5028220;28;20446;-74
2022/01/27 15:09:48;;;;;;;9.90;6.83;;;;;;;;;;5027927;28;20710;-73
2022/01/27 15:12:15;;;;;;;13.23;6.67;;;;;;;;;;5061474;28;20468;-74
2022/01/27 15:20:12;;;;;;;11.30;6.37;;;;;;;;;;5037574;28;20633;-74
2022/01/27 15:22:38;;;;;;;7.27;5.70;;;;;;;;;;5064329;28;20424;-75
2022/01/27 15:25:04;;;;;;;10.20;5.47;;;;;;;;;;5039942;28;21552;-74
2022/01/27 15:27:31;;;;;;;9.63;6.97;;;;;;;;;;5068429;28;21199;-74
2022/01/27 15:29:57;;;;;;;14.60;6.60;;;;;;;;;;5021222;28;20443;-74
2022/01/27 15:32:23;;;;;;;10.53;6.13;;;;;;;;;;5061612;28;20448;-74
2022/01/27 15:34:49;;;;;;;11.97;6.90;;;;;;;;;;5063357;28;20900;-73
2022/01/27 15:37:16;;;;;;;8.47;6.20;;;;;;;;;;5070575;28;20438;-75
2022/01/27 15:39:55;;;;;;;8.30;5.67;;;;;;;;;;5020726;28;20435;-74